createdAt,value
2022-12-18T00:00:52.331Z,58.06
2022-12-18T00:03:25.323Z,58.14
2022-12-18T00:05:56.393Z,58.46
2022-12-18T00:08:27.087Z,58.62
2022-12-18T00:10:59.838Z,58.65
2022-12-18T00:13:31.497Z,58.60
2022-12-18T00:16:21.477Z,58.92
2022-12-18T00:18:56.279Z,59.02
2022-12-18T00:21:26.407Z,58.95
2022-12-18T00:23:56.925Z,58.92
2022-12-18T00:26:29.402Z,58.74
2022-12-18T00:29:03.282Z,58.89
2022-12-18T00:31:35.406Z,58.74
2022-12-18T00:34:08.256Z,58.78
2022-12-18T00:36:39.037Z,58.61
2022-12-18T00:39:09.403Z,59.04
2022-12-18T00:41:51.792Z,59.37
2022-12-18T00:44:22.947Z,59.73
2022-12-18T00:46:54.596Z,59.82
2022-12-18T00:49:27.413Z,59.60
2022-12-18T00:51:58.398Z,59.30
2022-12-18T00:54:28.608Z,59.14
2022-12-18T00:56:59.199Z,59.38
2022-12-18T00:59:29.227Z,59.15
2022-12-18T01:01:59.305Z,59.07
2022-12-18T01:04:32.147Z,59.26
2022-12-18T01:07:02.228Z,59.31
2022-12-18T01:09:32.200Z,59.25
2022-12-18T01:12:02.293Z,59.21
2022-12-18T01:14:34.146Z,59.35
2022-12-18T01:17:04.719Z,59.45
2022-12-18T01:19:39.504Z,59.04
2022-12-18T01:22:11.932Z,59.14
2022-12-18T01:24:41.892Z,59.20
2022-12-18T01:27:11.952Z,59.08
2022-12-18T01:29:43.627Z,58.84
2022-12-18T01:32:13.717Z,58.65
2022-12-18T01:34:59.547Z,58.52
2022-12-18T01:37:31.078Z,58.63
2022-12-18T01:40:01.027Z,58.55
2022-12-18T01:42:31.161Z,58.52
2022-12-18T01:45:20.731Z,58.41
2022-12-18T01:47:56.034Z,58.37
2022-12-18T01:50:32.425Z,58.58
2022-12-18T01:53:05.908Z,58.85
2022-12-18T01:55:40.659Z,59.28
2022-12-18T01:58:10.796Z,59.00
2022-12-18T02:00:40.849Z,59.10
2022-12-18T02:03:10.890Z,59.29
2022-12-18T02:05:49.932Z,59.16
2022-12-18T02:08:25.725Z,59.08
2022-12-18T02:11:03.283Z,59.08
2022-12-18T02:13:45.022Z,58.56
2022-12-18T02:16:22.890Z,58.67
2022-12-18T02:18:57.752Z,58.59
2022-12-18T02:21:40.656Z,58.78
2022-12-18T02:24:24.060Z,58.91
2022-12-18T02:27:00.814Z,58.78
2022-12-18T02:29:38.332Z,58.67
2022-12-18T02:32:13.123Z,58.45
2022-12-18T02:34:44.676Z,58.39
2022-12-18T02:37:22.425Z,58.20
2022-12-18T02:39:57.009Z,57.90
2022-12-18T02:42:31.690Z,58.50
2022-12-18T02:45:02.666Z,58.47
2022-12-18T02:47:36.731Z,58.19
2022-12-18T02:50:17.507Z,57.99
2022-12-18T02:52:57.689Z,57.99
2022-12-18T02:55:37.483Z,58.22
2022-12-18T02:58:20.567Z,58.67
2022-12-18T03:01:02.682Z,58.95
2022-12-18T03:03:43.685Z,58.68
2022-12-18T03:06:22.113Z,58.50
2022-12-18T03:08:58.126Z,58.33
2022-12-18T03:11:42.907Z,58.41
2022-12-18T03:14:20.373Z,58.09
2022-12-18T03:16:57.077Z,58.27
2022-12-18T03:19:31.385Z,58.13
2022-12-18T03:22:06.288Z,58.12
2022-12-18T03:24:46.026Z,58.08
2022-12-18T03:27:21.314Z,57.96
2022-12-18T03:30:08.295Z,58.00
2022-12-18T03:32:45.236Z,57.99
2022-12-18T03:35:18.877Z,57.68
2022-12-18T03:37:49.079Z,57.49
2022-12-18T03:40:19.446Z,57.48
2022-12-18T03:42:55.430Z,57.41
2022-12-18T03:45:36.574Z,57.37
2022-12-18T03:48:12.985Z,57.34
2022-12-18T03:50:50.287Z,57.42
2022-12-18T03:53:32.708Z,57.44
2022-12-18T03:56:05.838Z,57.54
2022-12-18T03:58:42.628Z,57.29
2022-12-18T04:01:29.971Z,57.34
2022-12-18T04:04:02.248Z,57.43
2022-12-18T04:06:36.564Z,57.36
2022-12-18T04:09:09.671Z,57.49
2022-12-18T04:11:44.819Z,57.41
2022-12-18T04:14:18.315Z,57.36
2022-12-18T04:16:54.750Z,57.16
2022-12-18T04:19:30.343Z,58.23
2022-12-18T04:22:00.853Z,58.50
2022-12-18T04:24:34.646Z,58.30
2022-12-18T04:27:11.559Z,58.10
2022-12-18T04:29:48.527Z,57.96
2022-12-18T04:32:22.337Z,58.22
2022-12-18T04:34:52.750Z,57.93
2022-12-18T04:37:23.106Z,57.80
2022-12-18T04:39:54.584Z,58.17
2022-12-18T04:42:31.901Z,58.44
2022-12-18T04:45:01.781Z,58.06
2022-12-18T04:47:34.690Z,57.75
2022-12-18T04:50:06.840Z,57.69
2022-12-18T04:52:36.797Z,57.54
2022-12-18T04:55:07.133Z,57.70
2022-12-18T04:57:37.019Z,57.46
2022-12-18T05:00:08.716Z,57.25
2022-12-18T05:02:41.392Z,57.04
2022-12-18T05:05:12.366Z,57.22
2022-12-18T05:07:42.329Z,57.41
2022-12-18T05:10:12.777Z,57.24
2022-12-18T05:12:59.556Z,57.21
2022-12-18T05:15:32.845Z,56.95
2022-12-18T05:18:06.611Z,57.32
2022-12-18T05:20:36.491Z,57.35
2022-12-18T05:23:06.533Z,57.11
2022-12-18T05:25:36.416Z,57.80
2022-12-18T05:28:06.748Z,57.35
2022-12-18T05:30:36.717Z,57.23
2022-12-18T05:33:09.349Z,57.20
2022-12-18T05:35:39.304Z,57.47
2022-12-18T05:38:09.222Z,57.57
2022-12-18T05:40:39.125Z,57.60
2022-12-18T05:43:09.286Z,57.55
2022-12-18T05:45:55.624Z,57.25
2022-12-18T05:48:28.332Z,57.17
2022-12-18T05:50:58.217Z,57.29
2022-12-18T05:53:28.128Z,57.29
2022-12-18T05:55:58.000Z,57.87
2022-12-18T05:58:27.942Z,57.72
2022-12-18T06:00:57.862Z,57.77
2022-12-18T06:03:34.057Z,58.03
2022-12-18T06:06:04.173Z,57.91
2022-12-18T06:08:34.137Z,58.46
2022-12-18T06:11:04.566Z,58.38
2022-12-18T06:13:34.633Z,58.12
2022-12-18T06:16:06.594Z,58.44
2022-12-18T06:18:39.264Z,58.25
2022-12-18T06:21:09.434Z,57.84
2022-12-18T06:23:39.857Z,57.83
2022-12-18T06:26:11.223Z,58.02
2022-12-18T06:28:41.405Z,57.68
2022-12-18T06:31:13.245Z,57.91
2022-12-18T06:33:46.138Z,58.20
2022-12-18T06:36:17.740Z,57.95
2022-12-18T06:38:48.314Z,59.11
2022-12-18T06:41:20.487Z,59.30
2022-12-18T06:43:50.511Z,59.38
2022-12-18T06:46:20.660Z,59.78
2022-12-18T06:48:54.188Z,59.46
2022-12-18T06:51:25.428Z,59.03
2022-12-18T06:53:55.513Z,58.62
2022-12-18T06:56:25.448Z,58.48
2022-12-18T06:58:55.806Z,57.95
2022-12-18T07:01:26.361Z,58.56
2022-12-18T07:04:00.499Z,58.67
2022-12-18T07:06:30.527Z,58.79
2022-12-18T07:09:00.537Z,59.45
2022-12-18T07:11:30.518Z,59.75
2022-12-18T07:14:03.583Z,59.05
2022-12-18T07:16:33.587Z,58.83
2022-12-18T07:19:06.260Z,58.75
2022-12-18T07:21:36.249Z,58.38
2022-12-18T07:24:06.605Z,58.16
2022-12-18T07:26:37.541Z,58.20
2022-12-18T07:29:07.468Z,58.14
2022-12-18T07:31:37.726Z,58.50
2022-12-18T07:34:14.428Z,58.68
2022-12-18T07:36:44.640Z,58.60
2022-12-18T07:39:15.268Z,58.44
2022-12-18T07:42:05.567Z,58.21
2022-12-18T07:44:37.328Z,58.04
2022-12-18T07:47:11.747Z,58.14
2022-12-18T07:49:45.245Z,58.25
2022-12-18T07:52:15.348Z,58.36
2022-12-18T07:54:51.694Z,58.39
2022-12-18T07:57:48.814Z,58.42
2022-12-18T08:00:13.349Z,58.15
2022-12-18T08:02:43.400Z,58.28
2022-12-18T08:05:16.005Z,58.49
2022-12-18T08:07:45.941Z,58.40
2022-12-18T08:10:15.975Z,58.42
2022-12-18T08:12:46.130Z,58.55
2022-12-18T08:15:16.182Z,58.66
2022-12-18T08:17:46.173Z,59.26
2022-12-18T08:20:19.351Z,59.96
2022-12-18T08:22:49.458Z,59.69
2022-12-18T08:25:19.631Z,60.02
2022-12-18T08:27:49.608Z,60.09
2022-12-18T08:30:19.625Z,60.90
2022-12-18T08:32:50.393Z,60.17
2022-12-18T08:35:22.949Z,59.89
2022-12-18T08:37:52.841Z,59.78
2022-12-18T08:40:23.760Z,59.75
2022-12-18T08:43:06.077Z,59.49
2022-12-18T08:45:40.516Z,59.94
2022-12-18T08:48:10.453Z,60.35
2022-12-18T08:51:03.972Z,60.03
2022-12-18T08:53:35.739Z,59.89
2022-12-18T08:56:05.914Z,60.05
2022-12-18T08:58:35.815Z,60.41
2022-12-18T09:01:07.020Z,60.69
2022-12-18T09:03:37.688Z,61.41
2022-12-18T09:06:10.849Z,62.04
2022-12-18T09:08:41.273Z,62.20
2022-12-18T09:11:18.806Z,61.71
2022-12-18T09:13:48.710Z,61.57
2022-12-18T09:16:19.358Z,61.40
2022-12-18T09:18:49.715Z,61.12
2022-12-18T09:21:24.006Z,61.30
2022-12-18T09:23:55.153Z,61.12
2022-12-18T09:26:26.018Z,61.20
2022-12-18T09:28:57.003Z,61.59
2022-12-18T09:31:28.320Z,61.66
2022-12-18T09:33:59.463Z,61.72
2022-12-18T09:36:32.083Z,61.50
2022-12-18T09:39:06.432Z,61.86
2022-12-18T09:41:48.661Z,65.47
2022-12-18T09:44:26.217Z,65.33
2022-12-18T09:47:03.567Z,63.71
2022-12-18T09:49:38.357Z,61.56
2022-12-18T09:52:15.737Z,61.14
2022-12-18T09:54:47.494Z,61.18
2022-12-18T09:57:19.529Z,60.95
2022-12-18T09:59:54.669Z,61.78
2022-12-18T10:02:27.445Z,62.32
2022-12-18T10:05:16.022Z,62.08
2022-12-18T10:08:03.650Z,61.86
2022-12-18T10:10:41.832Z,61.50
2022-12-18T10:13:23.682Z,61.73
2022-12-18T10:16:19.017Z,62.11
2022-12-18T10:19:03.868Z,62.82
2022-12-18T10:21:37.668Z,63.73
2022-12-18T10:24:22.084Z,63.63
2022-12-18T10:26:52.022Z,63.00
2022-12-18T10:29:23.208Z,62.36
2022-12-18T10:31:53.191Z,62.09
2022-12-18T10:34:23.293Z,62.03
2022-12-18T10:36:53.205Z,61.69
2022-12-18T10:39:27.856Z,62.06
2022-12-18T10:42:14.023Z,62.53
2022-12-18T10:45:06.314Z,62.73
2022-12-18T10:47:38.336Z,63.47
2022-12-18T10:50:08.838Z,63.19
2022-12-18T10:52:45.054Z,63.10
2022-12-18T10:55:21.525Z,63.75
2022-12-18T10:57:53.680Z,63.56
2022-12-18T11:00:28.622Z,63.23
2022-12-18T11:02:59.750Z,62.82
2022-12-18T11:05:37.932Z,62.71
2022-12-18T11:08:08.212Z,62.67
2022-12-18T11:10:42.657Z,62.90
2022-12-18T11:13:20.587Z,62.73
2022-12-18T11:15:51.139Z,62.62
2022-12-18T11:18:35.661Z,62.59
2022-12-18T11:21:15.762Z,62.51
2022-12-18T11:23:52.599Z,62.70
2022-12-18T11:26:38.389Z,62.66
2022-12-18T11:29:13.914Z,62.18
2022-12-18T11:31:45.005Z,62.09
2022-12-18T11:34:31.477Z,62.53
2022-12-18T11:37:03.124Z,62.59
2022-12-18T11:39:40.101Z,62.76
2022-12-18T11:42:19.842Z,62.50
2022-12-18T11:44:54.183Z,62.54
2022-12-18T11:47:32.446Z,62.96
2022-12-18T11:50:05.238Z,62.71
2022-12-18T11:52:41.878Z,63.49
2022-12-18T11:55:16.918Z,63.45
2022-12-18T11:57:59.549Z,64.16
2022-12-18T12:00:29.938Z,63.88
2022-12-18T12:03:24.171Z,64.04
2022-12-18T12:06:09.498Z,63.36
2022-12-18T12:08:56.849Z,63.52
2022-12-18T12:11:36.638Z,63.43
2022-12-18T12:14:25.567Z,63.21
2022-12-18T12:17:01.896Z,64.30
2022-12-18T12:19:44.026Z,63.82
2022-12-18T12:22:21.995Z,63.00
2022-12-18T12:25:07.887Z,63.22
2022-12-18T12:27:45.624Z,63.64
2022-12-18T12:30:23.696Z,63.35
2022-12-18T12:33:07.573Z,63.20
2022-12-18T12:35:50.808Z,62.97
2022-12-18T12:38:26.878Z,62.42
2022-12-18T12:41:03.484Z,62.30
2022-12-18T12:43:44.645Z,62.55
2022-12-18T12:46:26.582Z,62.38
2022-12-18T12:48:59.329Z,62.64
2022-12-18T12:51:33.926Z,62.36
2022-12-18T12:54:29.980Z,61.95
2022-12-18T12:57:08.635Z,62.05
2022-12-18T12:59:46.075Z,62.14
2022-12-18T13:02:26.825Z,62.07
2022-12-18T13:05:05.759Z,62.90
2022-12-18T13:07:43.505Z,62.18
2022-12-18T13:10:36.181Z,61.60
2022-12-18T13:13:07.296Z,61.89
2022-12-18T13:15:44.306Z,61.85
2022-12-18T13:18:23.503Z,61.68
2022-12-18T13:21:05.840Z,62.16
2022-12-18T13:23:39.122Z,62.35
2022-12-18T13:26:36.928Z,62.61
2022-12-18T13:29:07.938Z,62.46
2022-12-18T13:32:22.657Z,62.17
2022-12-18T13:35:42.257Z,63.81
2022-12-18T13:38:25.189Z,63.83
2022-12-18T13:41:00.495Z,63.36
2022-12-18T13:43:52.123Z,62.90
2022-12-18T13:46:28.342Z,62.71
2022-12-18T13:49:01.778Z,62.45
2022-12-18T13:51:50.464Z,62.84
2022-12-18T13:54:24.232Z,62.93
2022-12-18T13:56:54.896Z,65.46
2022-12-18T13:59:27.408Z,65.08
2022-12-18T14:01:59.822Z,63.69
2022-12-18T14:04:33.809Z,64.39
2022-12-18T14:07:11.149Z,64.58
2022-12-18T14:09:47.091Z,63.41
2022-12-18T14:12:33.845Z,63.24
2022-12-18T14:15:04.213Z,63.55
2022-12-18T14:17:35.883Z,63.46
2022-12-18T14:20:07.475Z,63.21
2022-12-18T14:22:40.286Z,63.16
2022-12-18T14:25:20.427Z,63.69
2022-12-18T14:27:53.650Z,63.28
2022-12-18T14:30:32.440Z,63.18
2022-12-18T14:33:12.955Z,63.58
2022-12-18T14:35:44.985Z,64.47
2022-12-18T14:38:26.743Z,64.04
2022-12-18T14:40:58.501Z,63.58
2022-12-18T14:43:28.764Z,62.67
2022-12-18T14:46:00.087Z,62.41
2022-12-18T14:48:41.516Z,63.73
2022-12-18T14:51:20.416Z,63.32
2022-12-18T14:53:58.710Z,64.26
2022-12-18T14:56:30.521Z,63.86
2022-12-18T14:59:03.211Z,64.14
2022-12-18T15:01:37.326Z,64.05
2022-12-18T15:04:09.328Z,63.30
2022-12-18T15:06:42.780Z,63.19
2022-12-18T15:09:29.102Z,65.38
2022-12-18T15:12:01.030Z,66.22
2022-12-18T15:14:39.495Z,67.91
2022-12-18T15:17:28.409Z,68.88
2022-12-18T15:20:04.942Z,68.71
2022-12-18T15:22:39.330Z,68.50
2022-12-18T15:25:32.866Z,65.31
2022-12-18T15:28:02.939Z,64.60
2022-12-18T15:30:33.048Z,65.06
2022-12-18T15:33:26.042Z,66.07
2022-12-18T15:36:00.661Z,64.67
2022-12-18T15:38:31.292Z,65.35
2022-12-18T15:41:04.249Z,64.94
2022-12-18T15:43:38.013Z,65.82
2022-12-18T15:46:10.650Z,65.21
2022-12-18T15:48:44.716Z,63.83
2022-12-18T15:51:21.057Z,64.58
2022-12-18T15:53:52.315Z,64.96
2022-12-18T15:56:37.697Z,64.12
2022-12-18T15:59:13.897Z,63.25
2022-12-18T16:01:45.884Z,63.20
2022-12-18T16:04:17.334Z,62.98
2022-12-18T16:09:37.553Z,63.54
2022-12-18T16:12:15.815Z,63.67
2022-12-18T16:14:45.829Z,63.09
2022-12-18T16:17:21.898Z,63.63
2022-12-18T16:19:51.930Z,62.88
2022-12-18T16:22:38.704Z,63.48
2022-12-18T16:25:09.508Z,62.82
2022-12-18T16:27:43.961Z,62.27
2022-12-18T16:30:18.001Z,62.70
2022-12-18T16:32:49.512Z,63.05
2022-12-18T16:35:20.492Z,63.81
2022-12-18T16:37:50.692Z,63.86
2022-12-18T16:40:21.701Z,63.11
2022-12-18T16:42:54.608Z,61.98
2022-12-18T16:45:24.590Z,61.76
2022-12-18T16:47:54.525Z,62.60
2022-12-18T16:50:24.472Z,62.07
2022-12-18T16:52:54.557Z,62.59
2022-12-18T16:55:24.527Z,62.46
2022-12-18T16:57:57.449Z,61.79
2022-12-18T17:00:27.434Z,63.35
2022-12-18T17:02:57.600Z,62.31
2022-12-18T17:05:27.792Z,62.13
2022-12-18T17:07:57.933Z,61.84
2022-12-18T17:10:33.788Z,62.00
2022-12-18T17:13:06.684Z,62.36
2022-12-18T17:15:38.452Z,61.75
2022-12-18T17:18:08.674Z,61.62
2022-12-18T17:20:38.794Z,61.20
2022-12-18T17:23:09.014Z,61.16
2022-12-18T17:25:42.684Z,60.90
2022-12-18T17:28:15.322Z,60.90
2022-12-18T17:30:45.586Z,60.86
2022-12-18T17:33:15.726Z,60.68
2022-12-18T17:35:45.847Z,60.68
2022-12-18T17:38:18.439Z,60.67
2022-12-18T17:40:48.547Z,60.65
2022-12-18T17:43:27.063Z,60.31
2022-12-18T17:45:57.242Z,60.23
2022-12-18T17:48:28.236Z,60.93
2022-12-18T17:50:58.285Z,60.82
2022-12-18T17:53:30.234Z,60.18
2022-12-18T17:56:02.608Z,59.94
2022-12-18T17:58:36.346Z,59.99
2022-12-18T18:01:08.452Z,60.07
2022-12-18T18:03:41.538Z,59.95
2022-12-18T18:06:11.988Z,60.51
2022-12-18T18:08:51.513Z,60.05
2022-12-18T18:11:35.822Z,59.93
2022-12-18T18:14:10.245Z,59.82
2022-12-18T18:16:44.557Z,59.74
2022-12-18T18:19:16.540Z,59.67
2022-12-18T18:21:48.112Z,59.70
2022-12-18T18:24:20.039Z,59.48
2022-12-18T18:26:50.098Z,59.40
2022-12-18T18:29:27.783Z,59.41
2022-12-18T18:32:06.375Z,59.59
2022-12-18T18:34:36.832Z,59.53
2022-12-18T18:37:07.210Z,59.46
2022-12-18T18:39:37.204Z,59.46
2022-12-18T18:42:07.769Z,59.15
2022-12-18T18:44:44.425Z,59.29
2022-12-18T18:47:17.528Z,59.13
2022-12-18T18:49:47.858Z,59.30
2022-12-18T18:52:18.315Z,59.16
2022-12-18T18:55:11.591Z,59.17
2022-12-18T18:57:40.055Z,59.19
2022-12-18T19:00:15.380Z,59.16
2022-12-18T19:02:46.280Z,59.26
2022-12-18T19:05:16.506Z,59.30
2022-12-18T19:07:46.878Z,59.17
2022-12-18T19:10:16.867Z,59.23
2022-12-18T19:12:59.327Z,59.27
2022-12-18T19:15:32.048Z,59.37
2022-12-18T19:18:04.831Z,59.28
2022-12-18T19:20:35.167Z,59.11
2022-12-18T19:23:05.259Z,59.19
2022-12-18T19:25:38.535Z,59.79
2022-12-18T19:28:22.007Z,59.38
2022-12-18T19:30:59.362Z,59.20
2022-12-18T19:33:43.008Z,58.89
2022-12-18T19:36:16.556Z,59.07
2022-12-18T19:38:46.886Z,58.89
2022-12-18T19:41:18.137Z,58.91
2022-12-18T19:43:49.441Z,58.80
2022-12-18T19:46:24.080Z,58.82
2022-12-18T19:48:55.147Z,58.83
2022-12-18T19:51:27.563Z,58.58
2022-12-18T19:54:01.253Z,58.37
2022-12-18T19:56:34.434Z,58.38
2022-12-18T19:59:05.951Z,59.07
2022-12-18T20:01:47.684Z,58.59
2022-12-18T20:04:17.876Z,58.92
2022-12-18T20:06:53.654Z,58.61
2022-12-18T20:09:24.769Z,58.51
2022-12-18T20:11:55.098Z,58.41
2022-12-18T20:14:25.515Z,58.30
2022-12-18T20:16:58.104Z,58.85
2022-12-18T20:19:31.702Z,58.45
2022-12-18T20:22:03.790Z,58.69
2022-12-18T20:24:33.933Z,58.69
2022-12-18T20:27:12.295Z,58.79
2022-12-18T20:29:51.071Z,58.58
2022-12-18T20:32:23.769Z,58.35
2022-12-18T20:34:53.849Z,58.71
2022-12-18T20:37:24.669Z,59.09
2022-12-18T20:39:55.141Z,59.19
2022-12-18T20:42:27.831Z,58.96
2022-12-18T20:44:58.024Z,58.64
2022-12-18T20:47:34.248Z,59.19
2022-12-18T20:50:04.276Z,59.25
2022-12-18T20:52:34.480Z,58.91
2022-12-18T20:55:04.392Z,59.46
2022-12-18T20:57:35.073Z,59.31
2022-12-18T21:00:07.715Z,58.96
2022-12-18T21:02:41.293Z,59.65
2022-12-18T21:05:12.118Z,60.03
2022-12-18T21:07:42.178Z,59.22
2022-12-18T21:10:12.975Z,59.14
2022-12-18T21:13:01.533Z,58.71
2022-12-18T21:15:33.245Z,58.67
2022-12-18T21:18:06.160Z,58.61
2022-12-18T21:20:36.350Z,58.62
2022-12-18T21:23:15.640Z,58.61
2022-12-18T21:25:48.356Z,58.46
2022-12-18T21:28:25.552Z,58.32
2022-12-18T21:30:55.950Z,58.88
2022-12-18T21:33:28.651Z,59.21
2022-12-18T21:35:58.719Z,59.20
2022-12-18T21:38:31.008Z,59.02
2022-12-18T21:41:01.820Z,58.83
2022-12-18T21:43:53.174Z,58.97
2022-12-18T21:46:23.239Z,59.12
2022-12-18T21:48:55.861Z,59.15
2022-12-18T21:51:25.815Z,58.73
2022-12-18T21:53:57.135Z,58.83
2022-12-18T21:56:27.522Z,58.97
2022-12-18T21:58:57.520Z,58.92
2022-12-18T22:01:36.573Z,58.50
2022-12-18T22:04:10.449Z,58.40
2022-12-18T22:06:41.751Z,58.67
2022-12-18T22:09:18.299Z,59.47
2022-12-18T22:11:49.012Z,59.22
2022-12-18T22:14:19.324Z,59.16
2022-12-18T22:16:49.619Z,59.26
2022-12-18T22:19:24.787Z,59.00
2022-12-18T22:21:55.671Z,58.97
2022-12-18T22:24:29.213Z,58.99
2022-12-18T22:27:02.134Z,59.05
2022-12-18T22:29:44.953Z,59.23
2022-12-18T22:32:30.566Z,59.22
2022-12-18T22:35:10.400Z,58.97
2022-12-18T22:37:44.144Z,58.83
2022-12-18T22:40:24.087Z,58.71
2022-12-18T22:42:56.038Z,58.39
2022-12-18T22:45:26.265Z,58.41
2022-12-18T22:47:56.469Z,58.30
2022-12-18T22:50:29.037Z,58.59
2022-12-18T22:52:58.961Z,58.62
2022-12-18T22:55:28.919Z,58.71
2022-12-18T22:57:58.827Z,58.29
2022-12-18T23:00:28.813Z,58.33
2022-12-18T23:03:00.971Z,58.26
2022-12-18T23:05:34.898Z,58.23
2022-12-18T23:08:04.860Z,58.16
2022-12-18T23:10:34.877Z,58.13
2022-12-18T23:13:04.955Z,58.00
2022-12-18T23:15:35.221Z,58.00
2022-12-18T23:18:05.178Z,57.99
2022-12-18T23:20:38.271Z,58.26
2022-12-18T23:23:08.594Z,58.04
2022-12-18T23:25:38.625Z,57.88
2022-12-18T23:28:09.241Z,57.87
2022-12-18T23:30:39.667Z,57.89
2022-12-18T23:33:11.739Z,57.93
2022-12-18T23:35:44.456Z,58.20
2022-12-18T23:38:15.789Z,58.02
2022-12-18T23:40:45.785Z,58.07
2022-12-18T23:43:27.230Z,58.15
2022-12-18T23:45:57.374Z,58.29
2022-12-18T23:48:27.260Z,58.07
2022-12-18T23:50:59.923Z,58.08
2022-12-18T23:53:30.099Z,57.92
2022-12-18T23:56:00.020Z,57.89
2022-12-18T23:58:30.561Z,57.88
